Rifton, New York
Current Conditions -  °F | °C
As of 3:53 PM on Friday 28 Nov 2014 (Local Time) from KPOU Reporting Station
Few Clouds Few Clouds  
Wind Chill: 22°   Ceiling: Unl
Heat Index: 31°   Visibility: 10mi
Dew Point: 14°   Wind: 10mph
Humidity: 50%   Direction: 270°W
Pressure: 30.18"   Gusts: NA
Location:  41.84°N, 74.04°W
Report Text: KPOU 282053Z 27009KT 10SM FEW050 M01/M10 A3018 RMK AO2 SLP218 T10061100 53015
Loading
Personal Weather Stations






























Interactive Weather Map New forecast layout! Learn more

10-Day Weather Forecast

Advertisements
Track Severe Weather on mobile